Time;durP1;ratioP1;P1;durP2;ratioP2;P2;SDS_P1;SDS_P2;PMS_P1;PMS_P2;Temp;Humidity;BMP_temperature;BMP_pressure;BME280_temperature;BME280_humidity;BME280_pressure;Samples;Min_cycle;Max_cycle;Signal;HPM_P1;HPM_P2
2023/07/01 00:00:53;;;;;;;;;;;20.00;69.50;;;;;;5112850;28;20444;-71
2023/07/01 00:03:19;;;;;;;;;;;20.00;69.40;;;;;;5112764;28;19908;-72
2023/07/01 00:05:45;;;;;;;;;;;20.00;69.30;;;;;;5112210;28;19934;-72
2023/07/01 00:08:10;;;;;;;;;;;20.00;69.30;;;;;;5112865;28;19965;-71
2023/07/01 00:10:36;;;;;;;;;;;20.00;69.30;;;;;;5112390;28;19912;-71
2023/07/01 00:13:01;;;;;;;;;;;20.00;69.40;;;;;;5112560;28;20035;-72
2023/07/01 00:15:27;;;;;;;;;;;20.00;69.40;;;;;;5112290;28;20283;-73
2023/07/01 00:17:54;;;;;;;;;;;20.00;69.40;;;;;;5112545;27;19965;-73
2023/07/01 00:20:20;;;;;;;;;;;20.00;69.60;;;;;;5111972;28;19934;-72
2023/07/01 00:22:46;;;;;;;;;;;20.00;69.30;;;;;;5112141;28;19920;-71
2023/07/01 00:25:11;;;;;;;;;;;20.00;69.40;;;;;;5110628;28;19923;-72
2023/07/01 00:27:37;;;;;;;;;;;20.00;69.40;;;;;;5110877;28;19918;-72
2023/07/01 00:30:02;;;;;;;;;;;20.00;69.40;;;;;;5112460;27;20516;-72
2023/07/01 00:32:28;;;;;;;;;;;19.90;69.40;;;;;;5110826;28;19908;-72
2023/07/01 00:34:53;;;;;;;;;;;19.90;69.40;;;;;;5112192;28;19999;-72
2023/07/01 00:37:19;;;;;;;;;;;19.90;69.40;;;;;;5111959;28;20365;-72
2023/07/01 00:39:44;;;;;;;;;;;19.90;69.40;;;;;;5111841;28;20338;-72
2023/07/01 00:42:11;;;;;;;;;;;19.90;69.40;;;;;;5112031;28;20007;-72
2023/07/01 00:44:37;;;;;;;;;;;19.90;69.40;;;;;;5111872;28;20011;-71
2023/07/01 00:47:03;;;;;;;;;;;19.90;69.40;;;;;;5111726;28;20004;-72
2023/07/01 00:49:29;;;;;;;;;;;19.90;69.40;;;;;;5111183;27;20283;-71
2023/07/01 00:51:55;;;;;;;;;;;19.90;69.50;;;;;;5113369;27;19908;-72
2023/07/01 00:54:21;;;;;;;;;;;19.90;69.10;;;;;;5111662;28;19968;-72
2023/07/01 00:56:46;;;;;;;;;;;19.90;69.50;;;;;;5109948;28;20571;-72
2023/07/01 00:59:12;;;;;;;;;;;19.80;69.40;;;;;;5111620;28;20002;-71
2023/07/01 01:01:39;;;;;;;;;;;19.80;69.40;;;;;;5111500;28;19912;-71
2023/07/01 01:04:09;;;;;;;;;;;19.80;69.40;;;;;;5111535;28;20380;-71
2023/07/01 01:06:41;;;;;;;;;;;19.80;69.20;;;;;;5110916;28;19912;-72
2023/07/01 01:09:10;;;;;;;;;;;19.80;69.40;;;;;;5111493;28;20293;-72
2023/07/01 01:11:37;;;;;;;;;;;19.80;69.40;;;;;;5111278;28;19908;-72
2023/07/01 01:14:05;;;;;;;;;;;19.80;69.40;;;;;;5111346;28;19916;-72
2023/07/01 01:16:30;;;;;;;;;;;19.80;69.50;;;;;;5111060;28;19915;-72
2023/07/01 01:18:57;;;;;;;;;;;19.80;69.40;;;;;;5105796;28;19964;-72
2023/07/01 01:21:23;;;;;;;;;;;19.80;69.40;;;;;;5110264;28;20372;-72
2023/07/01 01:23:51;;;;;;;;;;;19.80;69.40;;;;;;5110271;28;19920;-71
2023/07/01 01:26:18;;;;;;;;;;;19.80;69.50;;;;;;5109700;28;19912;-72
2023/07/01 01:28:44;;;;;;;;;;;19.80;69.40;;;;;;5110708;28;19919;-71
2023/07/01 01:31:11;;;;;;;;;;;19.80;69.50;;;;;;5110710;28;19916;-72
2023/07/01 01:33:37;;;;;;;;;;;19.70;69.50;;;;;;5110817;28;19977;-72
2023/07/01 01:36:12;;;;;;;;;;;19.70;69.40;;;;;;5108897;28;19947;-72
2023/07/01 01:38:40;;;;;;;;;;;19.70;69.40;;;;;;5090612;28;19912;-72
2023/07/01 01:41:09;;;;;;;;;;;19.70;69.60;;;;;;5088985;28;20656;-72
2023/07/01 01:44:00;;;;;;;;;;;19.70;69.50;;;;;;5090610;28;19908;-72
2023/07/01 01:46:25;;;;;;;;;;;19.70;69.60;;;;;;5090125;28;20265;-72
2023/07/01 01:48:52;;;;;;;;;;;19.70;69.50;;;;;;5090284;28;19912;-71
2023/07/01 01:51:19;;;;;;;;;;;19.70;69.50;;;;;;5104901;28;20014;-72
2023/07/01 01:53:44;;;;;;;;;;;19.70;69.60;;;;;;5110447;28;19911;-72
2023/07/01 01:56:11;;;;;;;;;;;19.70;69.50;;;;;;5110212;28;19991;-72
2023/07/01 01:58:37;;;;;;;;;;;19.70;69.60;;;;;;5110421;28;19962;-72
2023/07/01 02:01:02;;;;;;;;;;;19.70;69.20;;;;;;5110465;28;19951;-72
2023/07/01 02:03:28;;;;;;;;;;;19.70;69.60;;;;;;5110407;28;19912;-72
2023/07/01 02:05:53;;;;;;;;;;;19.70;69.60;;;;;;5110021;28;20284;-72
2023/07/01 02:08:19;;;;;;;;;;;19.70;69.70;;;;;;5110024;28;19919;-72
2023/07/01 02:10:44;;;;;;;;;;;19.60;69.50;;;;;;5110078;28;20004;-73
2023/07/01 02:13:10;;;;;;;;;;;19.70;70.30;;;;;;5110099;28;19971;-72
2023/07/01 02:15:35;;;;;;;;;;;19.60;69.60;;;;;;5109744;28;20019;-72
2023/07/01 02:18:03;;;;;;;;;;;19.60;69.70;;;;;;5109616;28;19911;-72
2023/07/01 02:20:29;;;;;;;;;;;19.60;69.80;;;;;;5104809;28;19941;-72
2023/07/01 02:22:55;;;;;;;;;;;19.60;69.70;;;;;;5109773;28;19970;-72
2023/07/01 02:25:20;;;;;;;;;;;19.60;69.70;;;;;;5108037;28;19935;-71
2023/07/01 02:27:46;;;;;;;;;;;19.60;70.10;;;;;;5109657;27;20395;-72
2023/07/01 02:30:11;;;;;;;;;;;19.60;69.80;;;;;;5109863;28;19998;-71
2023/07/01 02:32:37;;;;;;;;;;;19.60;69.80;;;;;;5109647;28;20010;-71
2023/07/01 02:35:03;;;;;;;;;;;19.60;69.80;;;;;;5109663;28;20006;-72
2023/07/01 02:37:28;;;;;;;;;;;19.60;69.70;;;;;;5107829;28;19916;-71
2023/07/01 02:39:53;;;;;;;;;;;19.60;69.70;;;;;;5109432;28;19911;-72
2023/07/01 02:42:19;;;;;;;;;;;19.60;69.70;;;;;;5109609;28;19955;-72
2023/07/01 02:44:46;;;;;;;;;;;19.60;69.80;;;;;;5108284;28;19952;-73
2023/07/01 02:47:12;;;;;;;;;;;19.60;69.80;;;;;;5109325;28;19920;-72
2023/07/01 02:49:40;;;;;;;;;;;19.50;69.60;;;;;;5109010;28;19960;-72
2023/07/01 02:52:09;;;;;;;;;;;19.50;69.40;;;;;;5109284;28;19919;-72
2023/07/01 02:54:38;;;;;;;;;;;19.50;69.70;;;;;;5109121;28;19946;-72
2023/07/01 02:57:05;;;;;;;;;;;19.50;69.80;;;;;;5120364;27;19929;-72
2023/07/01 02:59:31;;;;;;;;;;;19.50;69.70;;;;;;5129688;27;19954;-72
2023/07/01 03:01:57;;;;;;;;;;;19.50;69.80;;;;;;5128636;27;20502;-72
2023/07/01 03:04:22;;;;;;;;;;;19.50;69.80;;;;;;5129783;27;20014;-72
2023/07/01 03:06:48;;;;;;;;;;;19.50;69.80;;;;;;5108229;28;19964;-72
2023/07/01 03:09:14;;;;;;;;;;;19.40;69.60;;;;;;5107830;28;19911;-72
2023/07/01 03:11:40;;;;;;;;;;;19.50;69.60;;;;;;5109137;28;19919;-72
2023/07/01 03:14:06;;;;;;;;;;;19.40;69.70;;;;;;5109334;28;20583;-73
2023/07/01 03:16:31;;;;;;;;;;;19.40;69.70;;;;;;5108684;28;19943;-72
2023/07/01 03:19:00;;;;;;;;;;;19.40;69.80;;;;;;5104523;28;20010;-72
2023/07/01 03:21:25;;;;;;;;;;;19.40;69.30;;;;;;5108810;28;19915;-72
2023/07/01 03:23:51;;;;;;;;;;;19.40;69.80;;;;;;5108910;28;19920;-72
2023/07/01 03:26:17;;;;;;;;;;;19.40;69.80;;;;;;5108639;28;19912;-72
2023/07/01 03:28:42;;;;;;;;;;;19.40;69.40;;;;;;5108511;28;19912;-72
2023/07/01 03:31:08;;;;;;;;;;;19.40;69.60;;;;;;5111426;28;19914;-71
2023/07/01 03:33:34;;;;;;;;;;;19.40;69.60;;;;;;5113017;28;20392;-71
2023/07/01 03:35:59;;;;;;;;;;;19.40;69.70;;;;;;5112903;28;19908;-72
2023/07/01 03:38:25;;;;;;;;;;;19.40;69.80;;;;;;5113483;28;19908;-71
2023/07/01 03:40:51;;;;;;;;;;;19.40;69.80;;;;;;5112912;28;19908;-72
2023/07/01 03:43:17;;;;;;;;;;;19.40;69.70;;;;;;5113001;28;19918;-72
2023/07/01 03:45:42;;;;;;;;;;;19.40;69.70;;;;;;5112484;28;20462;-72
2023/07/01 03:48:08;;;;;;;;;;;19.40;69.70;;;;;;5112905;28;20394;-72
2023/07/01 03:50:33;;;;;;;;;;;19.40;69.40;;;;;;5108238;28;19945;-72
2023/07/01 03:52:59;;;;;;;;;;;19.40;69.70;;;;;;5112414;28;20006;-72
2023/07/01 03:55:25;;;;;;;;;;;19.40;69.70;;;;;;5112484;28;19908;-72
2023/07/01 03:57:51;;;;;;;;;;;19.40;69.60;;;;;;5112678;28;20004;-72
2023/07/01 04:00:19;;;;;;;;;;;19.30;69.60;;;;;;5112705;28;20259;-72
2023/07/01 04:02:45;;;;;;;;;;;19.40;69.50;;;;;;5110961;28;19908;-72
2023/07/01 04:05:11;;;;;;;;;;;19.40;69.50;;;;;;5112417;28;19919;-72
2023/07/01 04:07:37;;;;;;;;;;;19.40;69.40;;;;;;5112135;28;19912;-72
2023/07/01 04:10:05;;;;;;;;;;;19.30;69.60;;;;;;5112302;28;19950;-72
2023/07/01 04:12:34;;;;;;;;;;;19.40;69.60;;;;;;5112044;27;19908;-72
2023/07/01 04:15:00;;;;;;;;;;;19.40;69.50;;;;;;5110819;28;19951;-72
2023/07/01 04:17:26;;;;;;;;;;;19.30;69.40;;;;;;5112155;28;19907;-72
2023/07/01 04:19:52;;;;;;;;;;;19.40;69.60;;;;;;5111944;28;20283;-73
2023/07/01 04:22:19;;;;;;;;;;;19.40;69.70;;;;;;5111543;28;19923;-72
2023/07/01 04:24:44;;;;;;;;;;;19.40;69.50;;;;;;5110324;28;19919;-72
2023/07/01 04:27:10;;;;;;;;;;;19.40;69.80;;;;;;5109033;28;20360;-72
2023/07/01 04:29:35;;;;;;;;;;;19.40;69.50;;;;;;5110678;28;19912;-72
2023/07/01 04:32:01;;;;;;;;;;;19.40;69.60;;;;;;5109494;28;19965;-72
2023/07/01 04:34:26;;;;;;;;;;;19.40;69.50;;;;;;5110572;28;20284;-72
2023/07/01 04:36:52;;;;;;;;;;;19.40;69.60;;;;;;5108675;28;19922;-72
2023/07/01 04:39:18;;;;;;;;;;;19.40;69.60;;;;;;5110502;28;19912;-73
2023/07/01 04:41:44;;;;;;;;;;;19.40;69.60;;;;;;5110487;28;19912;-72
2023/07/01 04:44:09;;;;;;;;;;;19.40;69.60;;;;;;5110645;28;19916;-72
2023/07/01 04:46:35;;;;;;;;;;;19.40;69.70;;;;;;5110344;28;20002;-72
2023/07/01 04:49:00;;;;;;;;;;;19.40;69.50;;;;;;5110417;28;19918;-72
2023/07/01 04:51:26;;;;;;;;;;;19.40;69.50;;;;;;5109797;28;19922;-72
2023/07/01 04:53:51;;;;;;;;;;;19.40;69.60;;;;;;5110431;28;19988;-72
2023/07/01 04:56:17;;;;;;;;;;;19.40;69.60;;;;;;5114267;28;19912;-73
2023/07/01 04:58:42;;;;;;;;;;;19.40;69.70;;;;;;5130805;27;19918;-73
2023/07/01 05:01:08;;;;;;;;;;;19.30;69.70;;;;;;5130754;27;19914;-72
2023/07/01 05:03:33;;;;;;;;;;;19.40;69.70;;;;;;5130402;27;19907;-72
2023/07/01 05:05:59;;;;;;;;;;;19.40;69.70;;;;;;5117389;27;19961;-71
2023/07/01 05:08:24;;;;;;;;;;;19.40;69.70;;;;;;5110423;28;20364;-72
2023/07/01 05:10:50;;;;;;;;;;;19.40;69.50;;;;;;5110063;28;20006;-72
2023/07/01 05:13:15;;;;;;;;;;;19.40;69.70;;;;;;5110081;28;19969;-72
2023/07/01 05:15:41;;;;;;;;;;;19.40;69.70;;;;;;5109699;28;20550;-71
2023/07/01 05:18:07;;;;;;;;;;;19.40;69.80;;;;;;5110106;28;20414;-72
2023/07/01 05:20:33;;;;;;;;;;;19.40;69.70;;;;;;5103870;28;19916;-72
2023/07/01 05:22:58;;;;;;;;;;;19.50;69.70;;;;;;5041862;28;1797714;-71
2023/07/01 05:25:24;;;;;;;;;;;19.50;69.60;;;;;;5110442;28;19908;-72
2023/07/01 05:27:49;;;;;;;;;;;19.50;69.60;;;;;;5110903;28;19960;-72
2023/07/01 05:30:15;;;;;;;;;;;19.50;69.60;;;;;;5109584;28;20360;-72
2023/07/01 05:32:40;;;;;;;;;;;19.50;69.60;;;;;;5110737;28;19919;-72
2023/07/01 05:35:06;;;;;;;;;;;19.50;69.40;;;;;;5110691;28;19915;-72
2023/07/01 05:37:31;;;;;;;;;;;19.50;69.40;;;;;;5110346;28;20489;-73
2023/07/01 05:39:57;;;;;;;;;;;19.50;69.40;;;;;;5110601;28;20016;-72
2023/07/01 05:42:22;;;;;;;;;;;19.60;69.40;;;;;;5110665;28;19957;-72
2023/07/01 05:44:48;;;;;;;;;;;19.60;69.50;;;;;;5110425;28;20008;-72
2023/07/01 05:47:13;;;;;;;;;;;19.60;70.00;;;;;;5110372;28;20268;-72
2023/07/01 05:49:39;;;;;;;;;;;19.60;69.30;;;;;;5108686;28;19912;-72
2023/07/01 05:52:04;;;;;;;;;;;19.70;69.40;;;;;;5102123;28;19962;-72
2023/07/01 05:54:30;;;;;;;;;;;19.70;69.40;;;;;;5109343;28;20656;-72
2023/07/01 05:56:55;;;;;;;;;;;19.70;69.30;;;;;;5110268;28;20351;-72
2023/07/01 05:59:21;;;;;;;;;;;19.70;69.20;;;;;;5110160;28;19915;-72
2023/07/01 06:01:46;;;;;;;;;;;19.70;69.90;;;;;;5110474;28;20737;-72
2023/07/01 06:04:12;;;;;;;;;;;19.70;69.20;;;;;;5110109;28;19958;-72
2023/07/01 06:06:39;;;;;;;;;;;19.70;69.20;;;;;;5109388;28;19947;-72
2023/07/01 06:09:04;;;;;;;;;;;19.80;69.30;;;;;;5110048;28;19914;-71
2023/07/01 06:11:30;;;;;;;;;;;19.80;69.20;;;;;;5109985;28;19912;-72
2023/07/01 06:13:55;;;;;;;;;;;19.80;69.10;;;;;;5110228;28;20598;-72
2023/07/01 06:16:21;;;;;;;;;;;19.80;69.10;;;;;;5110023;28;19918;-73
2023/07/01 06:18:46;;;;;;;;;;;19.80;69.10;;;;;;5110088;28;19915;-72
2023/07/01 06:21:12;;;;;;;;;;;19.80;69.20;;;;;;5107643;28;19912;-72
2023/07/01 06:23:38;;;;;;;;;;;19.80;69.20;;;;;;5114260;27;19920;-73
2023/07/01 06:26:04;;;;;;;;;;;19.80;69.20;;;;;;5107176;28;19915;-72
2023/07/01 06:28:30;;;;;;;;;;;19.90;69.30;;;;;;5108994;28;19972;-72
2023/07/01 06:30:55;;;;;;;;;;;19.80;69.30;;;;;;5109684;28;19912;-73
2023/07/01 06:33:21;;;;;;;;;;;19.90;69.40;;;;;;5108660;28;20007;-73
2023/07/01 06:35:46;;;;;;;;;;;19.80;69.30;;;;;;5107450;28;19950;-72
2023/07/01 06:38:12;;;;;;;;;;;19.80;69.40;;;;;;5108238;28;20415;-72
2023/07/01 06:40:37;;;;;;;;;;;19.80;69.60;;;;;;5108087;28;20466;-73
2023/07/01 06:43:03;;;;;;;;;;;19.80;69.60;;;;;;5106953;28;19918;-72
2023/07/01 06:45:29;;;;;;;;;;;19.70;69.70;;;;;;5107803;28;19961;-72
2023/07/01 06:47:54;;;;;;;;;;;19.70;69.60;;;;;;5108207;28;19932;-72
2023/07/01 06:50:20;;;;;;;;;;;19.70;69.80;;;;;;5108077;28;21236;-71
2023/07/01 06:52:45;;;;;;;;;;;19.70;70.30;;;;;;5106452;28;20423;-72
2023/07/01 06:55:13;;;;;;;;;;;19.70;70.20;;;;;;5108489;28;19918;-71
2023/07/01 06:57:42;;;;;;;;;;;19.70;70.10;;;;;;5108616;28;19969;-72
2023/07/01 07:00:09;;;;;;;;;;;19.70;70.30;;;;;;5107526;28;19988;-72
2023/07/01 07:02:34;;;;;;;;;;;19.70;70.30;;;;;;5108556;28;20329;-71
2023/07/01 07:05:00;;;;;;;;;;;19.70;70.40;;;;;;5108230;28;19998;-71
2023/07/01 07:07:25;;;;;;;;;;;19.70;70.40;;;;;;5112500;27;19971;-72
2023/07/01 07:09:51;;;;;;;;;;;19.70;70.50;;;;;;5107535;28;20006;-72
2023/07/01 07:12:17;;;;;;;;;;;19.70;71.10;;;;;;5108950;28;20348;-72
2023/07/01 07:14:42;;;;;;;;;;;19.70;71.30;;;;;;5108646;28;19920;-72
2023/07/01 07:17:07;;;;;;;;;;;19.70;70.90;;;;;;5108513;28;19947;-71
2023/07/01 07:19:33;;;;;;;;;;;19.70;70.70;;;;;;5107300;28;20293;-72
2023/07/01 07:21:59;;;;;;;;;;;19.70;70.80;;;;;;5108310;28;19914;-71
2023/07/01 07:24:24;;;;;;;;;;;19.70;71.00;;;;;;5108277;28;19915;-72
2023/07/01 07:26:56;;;;;;;;;;;19.70;70.80;;;;;;5108356;28;20423;-71
2023/07/01 07:29:22;;;;;;;;;;;19.70;71.00;;;;;;5108945;28;19951;-72
2023/07/01 07:31:48;;;;;;;;;;;19.70;71.20;;;;;;5108862;28;19918;-72
2023/07/01 07:34:14;;;;;;;;;;;19.70;71.30;;;;;;5107565;28;19916;-72
2023/07/01 07:36:39;;;;;;;;;;;19.70;71.30;;;;;;5107014;28;19934;-71
2023/07/01 07:39:05;;;;;;;;;;;19.70;71.20;;;;;;5108630;28;19912;-71
2023/07/01 07:41:30;;;;;;;;;;;19.70;71.40;;;;;;5108476;28;19955;-72
2023/07/01 07:43:55;;;;;;;;;;;19.70;71.40;;;;;;5108749;28;19919;-72
2023/07/01 07:46:21;;;;;;;;;;;19.70;71.60;;;;;;5108721;28;19912;-72
2023/07/01 07:48:46;;;;;;;;;;;19.70;72.00;;;;;;5108917;28;19907;-72
2023/07/01 07:51:12;;;;;;;;;;;19.70;71.60;;;;;;5108518;28;19999;-72
2023/07/01 07:53:38;;;;;;;;;;;19.80;71.50;;;;;;5108642;28;19922;-72
2023/07/01 07:56:04;;;;;;;;;;;19.80;71.60;;;;;;5108212;28;20368;-72
2023/07/01 07:58:29;;;;;;;;;;;19.80;71.60;;;;;;5108473;28;19923;-72
2023/07/01 08:00:55;;;;;;;;;;;19.80;71.60;;;;;;5107198;28;19908;-73
2023/07/01 08:03:20;;;;;;;;;;;19.90;71.60;;;;;;5108634;28;19908;-73
2023/07/01 08:05:48;;;;;;;;;;;19.90;71.80;;;;;;5108071;28;19981;-73
2023/07/01 08:08:14;;;;;;;;;;;19.90;71.60;;;;;;5108397;28;20352;-72
2023/07/01 08:10:44;;;;;;;;;;;19.90;72.00;;;;;;5108104;28;19908;-73
2023/07/01 08:13:09;;;;;;;;;;;20.00;72.00;;;;;;5108358;28;19915;-72
2023/07/01 08:15:35;;;;;;;;;;;20.00;71.70;;;;;;5106966;28;19911;-72
2023/07/01 08:18:00;;;;;;;;;;;20.00;72.20;;;;;;5111963;28;20662;-73
2023/07/01 08:20:25;;;;;;;;;;;20.00;71.60;;;;;;5112168;28;19911;-73
2023/07/01 08:22:51;;;;;;;;;;;20.10;72.00;;;;;;5111293;28;19981;-73
2023/07/01 08:25:16;;;;;;;;;;;20.10;71.80;;;;;;5112016;28;19912;-73
2023/07/01 08:27:42;;;;;;;;;;;20.20;72.00;;;;;;5111679;28;19912;-73
2023/07/01 08:30:08;;;;;;;;;;;20.20;71.50;;;;;;5111954;28;19916;-72
2023/07/01 08:32:33;;;;;;;;;;;20.30;71.90;;;;;;5111701;28;19919;-73
2023/07/01 08:34:59;;;;;;;;;;;20.30;72.10;;;;;;5110212;28;19912;-73
2023/07/01 08:37:25;;;;;;;;;;;20.40;71.70;;;;;;5107186;28;19916;-72
2023/07/01 08:39:50;;;;;;;;;;;20.40;71.80;;;;;;5099247;27;19920;-73
2023/07/01 08:42:20;;;;;;;;;;;20.30;72.10;;;;;;5102572;28;19912;-72
2023/07/01 08:44:46;;;;;;;;;;;20.40;72.10;;;;;;5111331;28;19912;-73
2023/07/01 08:47:12;;;;;;;;;;;20.40;71.90;;;;;;5111220;28;19977;-72
2023/07/01 08:49:39;;;;;;;;;;;20.40;71.90;;;;;;5109968;28;19912;-73
2023/07/01 08:52:08;;;;;;;;;;;20.40;72.80;;;;;;5109821;28;19911;-73
2023/07/01 08:54:34;;;;;;;;;;;20.40;72.50;;;;;;5111208;27;20368;-73
2023/07/01 08:57:00;;;;;;;;;;;20.40;72.10;;;;;;5110766;28;19923;-73
2023/07/01 08:59:26;;;;;;;;;;;20.50;72.60;;;;;;5110889;28;20011;-72
2023/07/01 09:01:52;;;;;;;;;;;20.50;72.70;;;;;;5111280;28;20093;-72
2023/07/01 09:04:18;;;;;;;;;;;20.60;72.40;;;;;;5110852;28;19984;-72
2023/07/01 09:06:43;;;;;;;;;;;20.60;73.10;;;;;;5108518;28;19912;-73
2023/07/01 09:09:09;;;;;;;;;;;20.70;72.40;;;;;;5113150;27;20004;-73
2023/07/01 09:11:35;;;;;;;;;;;20.70;73.10;;;;;;5110434;28;20272;-72
2023/07/01 09:14:02;;;;;;;;;;;20.60;73.70;;;;;;5109116;28;19926;-72
2023/07/01 09:16:32;;;;;;;;;;;20.70;72.80;;;;;;5110353;28;19912;-72
2023/07/01 09:19:07;;;;;;;;;;;20.70;72.30;;;;;;5110703;28;20006;-72
2023/07/01 09:21:33;;;;;;;;;;;20.80;72.30;;;;;;5107704;28;19911;-73
2023/07/01 09:24:00;;;;;;;;;;;20.70;73.10;;;;;;5110134;28;19922;-73
2023/07/01 09:26:27;;;;;;;;;;;20.70;73.20;;;;;;5108600;28;20020;-73
2023/07/01 09:28:54;;;;;;;;;;;20.80;73.30;;;;;;5108655;28;19919;-72
2023/07/01 09:31:19;;;;;;;;;;;20.80;73.50;;;;;;5110214;28;19912;-73
2023/07/01 09:33:57;;;;;;;;;;;20.90;72.70;;;;;;5110022;28;19922;-72
2023/07/01 09:36:24;;;;;;;;;;;20.90;72.80;;;;;;5109667;28;19957;-72
2023/07/01 09:38:53;;;;;;;;;;;20.90;73.40;;;;;;5109214;28;19911;-73
2023/07/01 09:41:24;;;;;;;;;;;21.00;73.30;;;;;;5110611;28;19908;-72
2023/07/01 09:43:50;;;;;;;;;;;21.00;72.90;;;;;;5109657;28;20369;-73
2023/07/01 09:46:16;;;;;;;;;;;21.10;72.90;;;;;;5110369;28;19908;-72
2023/07/01 09:48:54;;;;;;;;;;;21.20;72.90;;;;;;5109296;28;19988;-73
2023/07/01 09:51:21;;;;;;;;;;;21.20;72.80;;;;;;5109238;28;19912;-72
2023/07/01 09:53:46;;;;;;;;;;;21.30;72.90;;;;;;5109756;28;19915;-73
2023/07/01 09:56:13;;;;;;;;;;;21.30;73.00;;;;;;5109205;28;19964;-72
2023/07/01 09:58:39;;;;;;;;;;;21.30;73.30;;;;;;5109662;28;19973;-72
2023/07/01 10:01:04;;;;;;;;;;;21.30;73.00;;;;;;5109452;28;20327;-72
2023/07/01 10:03:30;;;;;;;;;;;21.30;73.30;;;;;;5109567;28;19938;-72
2023/07/01 10:05:55;;;;;;;;;;;21.20;73.60;;;;;;5109301;28;19918;-71
2023/07/01 10:08:21;;;;;;;;;;;21.20;73.60;;;;;;5109983;28;19918;-72
2023/07/01 10:11:05;;;;;;;;;;;21.20;73.70;;;;;;5110017;28;19911;-72
2023/07/01 10:13:33;;;;;;;;;;;21.20;73.50;;;;;;5108395;28;20015;-73
2023/07/01 10:16:01;;;;;;;;;;;21.20;74.20;;;;;;5108224;28;19908;-72
2023/07/01 10:18:28;;;;;;;;;;;21.20;73.60;;;;;;5110006;28;20328;-72
2023/07/01 10:21:14;;;;;;;;;;;21.20;74.40;;;;;;5101398;28;19908;-72
2023/07/01 10:23:43;;;;;;;;;;;21.20;73.80;;;;;;5109366;28;19927;-71
2023/07/01 10:26:27;;;;;;;;;;;21.20;74.20;;;;;;5109123;28;20390;-72
2023/07/01 10:28:52;;;;;;;;;;;21.20;74.80;;;;;;5109517;28;19911;-72
2023/07/01 10:31:18;;;;;;;;;;;21.20;74.20;;;;;;5109683;28;19935;-72
2023/07/01 10:33:43;;;;;;;;;;;21.20;74.80;;;;;;5109673;28;19915;-72
2023/07/01 10:36:09;;;;;;;;;;;21.20;74.60;;;;;;5109093;28;20273;-72
2023/07/01 10:38:35;;;;;;;;;;;21.20;74.70;;;;;;5109430;28;19912;-72
2023/07/01 10:41:01;;;;;;;;;;;21.20;74.50;;;;;;5108783;28;20565;-72
2023/07/01 10:43:29;;;;;;;;;;;21.20;74.40;;;;;;5108898;28;20010;-72
2023/07/01 10:46:04;;;;;;;;;;;21.30;74.50;;;;;;5108919;28;19907;-72
2023/07/01 10:48:30;;;;;;;;;;;21.30;74.80;;;;;;5107030;28;19991;-72
2023/07/01 10:51:00;;;;;;;;;;;21.30;74.60;;;;;;5108719;28;20091;-72
2023/07/01 10:53:25;;;;;;;;;;;21.30;75.40;;;;;;5108903;28;20014;-71
2023/07/01 10:55:51;;;;;;;;;;;21.30;74.50;;;;;;5108616;28;20010;-72
2023/07/01 10:58:21;;;;;;;;;;;21.30;75.00;;;;;;5107928;28;19916;-72
2023/07/01 11:00:56;;;;;;;;;;;21.40;74.80;;;;;;5105342;28;19947;-72
2023/07/01 11:03:34;;;;;;;;;;;21.40;75.40;;;;;;5108263;28;19918;-72
2023/07/01 11:06:00;;;;;;;;;;;21.40;75.10;;;;;;5114443;27;19916;-73
2023/07/01 11:08:25;;;;;;;;;;;21.40;75.40;;;;;;5090333;27;19918;-72
2023/07/01 11:10:51;;;;;;;;;;;21.50;75.50;;;;;;5086374;28;19912;-72
2023/07/01 11:13:17;;;;;;;;;;;21.50;76.50;;;;;;5105826;28;19962;-72
2023/07/01 11:15:42;;;;;;;;;;;21.50;75.10;;;;;;5107569;28;19919;-73
2023/07/01 11:18:08;;;;;;;;;;;21.60;75.30;;;;;;5108008;28;20021;-72
2023/07/01 11:20:48;;;;;;;;;;;21.60;75.00;;;;;;5108082;28;20002;-73
2023/07/01 11:23:13;;;;;;;;;;;21.60;75.50;;;;;;5107671;28;19919;-72
2023/07/01 11:25:42;;;;;;;;;;;21.60;75.20;;;;;;5107586;28;20261;-72
2023/07/01 11:28:07;;;;;;;;;;;21.60;75.30;;;;;;5108174;28;20010;-73
2023/07/01 11:30:33;;;;;;;;;;;21.60;75.30;;;;;;5107908;28;20003;-73
2023/07/01 11:33:12;;;;;;;;;;;21.50;75.90;;;;;;5107609;28;20325;-72
2023/07/01 11:35:51;;;;;;;;;;;21.50;76.30;;;;;;5107654;28;19911;-72
2023/07/01 11:38:25;;;;;;;;;;;21.40;76.50;;;;;;5108250;28;19972;-71
2023/07/01 11:40:50;;;;;;;;;;;21.40;76.10;;;;;;5105529;28;19915;-72
2023/07/01 11:43:18;;;;;;;;;;;21.40;76.10;;;;;;5108769;28;19923;-72
2023/07/01 11:45:48;;;;;;;;;;;21.30;76.30;;;;;;5127983;27;19953;-72
2023/07/01 11:48:14;;;;;;;;;;;21.30;76.10;;;;;;5128099;28;19959;-72
2023/07/01 11:50:52;;;;;;;;;;;21.30;76.50;;;;;;5116282;27;20361;-72
2023/07/01 11:53:17;;;;;;;;;;;21.30;77.90;;;;;;5090191;28;20390;-72
2023/07/01 11:55:43;;;;;;;;;;;21.20;76.80;;;;;;5090776;28;19920;-72
2023/07/01 11:58:27;;;;;;;;;;;21.20;76.70;;;;;;5108543;28;20675;-71
2023/07/01 12:00:53;;;;;;;;;;;21.10;76.70;;;;;;5110618;28;19916;-72
2023/07/01 12:03:19;;;;;;;;;;;21.10;77.00;;;;;;5103202;27;20349;-71
2023/07/01 12:05:44;;;;;;;;;;;21.10;77.40;;;;;;5109135;28;19919;-72
2023/07/01 12:08:10;;;;;;;;;;;21.10;76.90;;;;;;5105377;27;19915;-72
2023/07/01 12:10:35;;;;;;;;;;;21.10;77.20;;;;;;5108169;28;20010;-71
2023/07/01 12:13:01;;;;;;;;;;;21.10;77.20;;;;;;5114149;27;19920;-71
2023/07/01 12:15:27;;;;;;;;;;;21.10;77.20;;;;;;5110916;27;19915;-71
2023/07/01 12:17:53;;;;;;;;;;;21.10;77.50;;;;;;5108615;28;20269;-72
2023/07/01 12:20:20;;;;;;;;;;;21.10;77.40;;;;;;5107358;28;19961;-72
2023/07/01 12:22:46;;;;;;;;;;;21.10;77.40;;;;;;5107914;28;19920;-72
2023/07/01 12:25:11;;;;;;;;;;;21.10;77.90;;;;;;5111651;28;19919;-72
2023/07/01 12:27:37;;;;;;;;;;;21.00;78.20;;;;;;5110758;28;19934;-73
2023/07/01 12:30:09;;;;;;;;;;;21.00;78.30;;;;;;5111779;28;20006;-72
2023/07/01 12:32:34;;;;;;;;;;;21.00;77.90;;;;;;5110599;28;19912;-72
2023/07/01 12:35:00;;;;;;;;;;;21.00;78.60;;;;;;5111931;28;19915;-72
2023/07/01 12:37:26;;;;;;;;;;;21.00;78.20;;;;;;5110237;28;19911;-72
2023/07/01 12:39:52;;;;;;;;;;;21.00;77.80;;;;;;5108387;28;20395;-71
2023/07/01 12:42:19;;;;;;;;;;;21.00;78.00;;;;;;5111402;28;19911;-72
2023/07/01 12:44:45;;;;;;;;;;;21.00;77.10;;;;;;5111736;28;19911;-72
2023/07/01 12:47:10;;;;;;;;;;;21.00;77.00;;;;;;5111184;28;19915;-72
2023/07/01 12:49:37;;;;;;;;;;;21.00;77.70;;;;;;5111981;28;20554;-71
2023/07/01 12:52:03;;;;;;;;;;;21.00;77.50;;;;;;5101481;28;19947;-72
2023/07/01 12:54:31;;;;;;;;;;;21.00;77.90;;;;;;5091043;28;20365;-71
2023/07/01 12:56:56;;;;;;;;;;;21.00;78.30;;;;;;5090950;28;19912;-72
2023/07/01 12:59:22;;;;;;;;;;;21.00;78.80;;;;;;5090915;28;19954;-72
2023/07/01 13:01:47;;;;;;;;;;;21.00;78.50;;;;;;5089438;28;19912;-72
2023/07/01 13:04:18;;;;;;;;;;;21.00;78.80;;;;;;5090986;28;19912;-72
2023/07/01 13:06:43;;;;;;;;;;;21.00;78.90;;;;;;5109489;28;20411;-72
2023/07/01 13:09:09;;;;;;;;;;;21.00;79.00;;;;;;5115800;27;19915;-72
2023/07/01 13:11:36;;;;;;;;;;;21.00;78.60;;;;;;5127888;27;19919;-72
2023/07/01 13:14:09;;;;;;;;;;;21.00;79.00;;;;;;5124263;27;19915;-72
2023/07/01 13:16:35;;;;;;;;;;;21.00;79.70;;;;;;5131329;27;19919;-72
2023/07/01 13:19:03;;;;;;;;;;;21.00;78.50;;;;;;5131501;27;19912;-72
2023/07/01 13:21:28;;;;;;;;;;;21.00;78.40;;;;;;5117661;27;19958;-72
2023/07/01 13:23:54;;;;;;;;;;;21.00;79.20;;;;;;5110557;28;19943;-72
2023/07/01 13:26:28;;;;;;;;;;;21.10;78.70;;;;;;5110470;28;19918;-72
2023/07/01 13:28:54;;;;;;;;;;;21.20;78.40;;;;;;5110865;28;19954;-71
2023/07/01 13:31:21;;;;;;;;;;;21.30;78.30;;;;;;5110870;28;19961;-71
2023/07/01 13:33:48;;;;;;;;;;;21.50;78.30;;;;;;5110749;28;19969;-72
2023/07/01 13:36:16;;;;;;;;;;;21.50;78.90;;;;;;5110387;28;19912;-73
2023/07/01 13:38:42;;;;;;;;;;;21.70;78.90;;;;;;5110801;28;19972;-73
2023/07/01 13:41:07;;;;;;;;;;;21.70;79.40;;;;;;5110130;28;19912;-72
2023/07/01 13:43:34;;;;;;;;;;;21.80;79.00;;;;;;5110655;28;19912;-73
2023/07/01 13:45:59;;;;;;;;;;;21.90;77.70;;;;;;5110254;28;19919;-71
2023/07/01 13:48:28;;;;;;;;;;;22.00;78.10;;;;;;5110590;28;19911;-72
2023/07/01 13:50:54;;;;;;;;;;;22.10;77.40;;;;;;5109763;28;19915;-72
2023/07/01 13:53:20;;;;;;;;;;;22.30;79.10;;;;;;5090381;28;20335;-72
2023/07/01 13:55:49;;;;;;;;;;;22.40;76.70;;;;;;5089290;28;19961;-72
2023/07/01 13:58:14;;;;;;;;;;;22.50;78.10;;;;;;5089623;28;19915;-73
2023/07/01 14:00:41;;;;;;;;;;;22.50;78.50;;;;;;5089592;28;19909;-73
2023/07/01 14:03:10;;;;;;;;;;;22.60;76.60;;;;;;5088929;28;20630;-72
2023/07/01 14:05:38;;;;;;;;;;;22.70;77.50;;;;;;5097844;28;19939;-72
2023/07/01 14:08:03;;;;;;;;;;;22.80;76.60;;;;;;5110211;28;19912;-73
2023/07/01 14:10:30;;;;;;;;;;;23.00;77.40;;;;;;5110111;28;19907;-73
2023/07/01 14:12:56;;;;;;;;;;;23.20;75.80;;;;;;5118338;27;19914;-72